CheckWX is a tool to help pilots better visualize weather data.  It is not intended as a substitute for an official pre-flight weather briefing.

06:28:05 UTC

OETR METAR
Turaif Domestic Airport
Saudi Arabia
Current

28 mins ago

OETR 200600Z 05011KT CAVOK 20/14 Q1019
Observed
Oct-20 @ 06:00 UTC
Wind
  • 050° at 11 KTS
Visibility
10,000+ meters
Flight Rules
VFR
Cloud Levels
  • Clear skies
Temperature
20°C / 68°F
Dewpoint
14°C / 57°F
Humidity
69%
Altimeter
30.09" Hg
Pressure
1018.92 hPa
Previous

1 hour ago

OETR 200500Z 03008KT CAVOK 17/13 Q1019
Observed
Oct-20 @ 05:00 UTC
Wind
  • 030° at 8 KTS
Visibility
10,000+ meters
Flight Rules
VFR
Cloud Levels
  • Clear skies
Temperature
17°C / 63°F
Dewpoint
13°C / 55°F
Humidity
77%
Altimeter
30.09" Hg
Pressure
1018.92 hPa
Previous

2 hours ago

OETR 200400Z 36006KT CAVOK 15/11 Q1019
Observed
Oct-20 @ 04:00 UTC
Wind
  • 360° at 6 KTS
Visibility
10,000+ meters
Flight Rules
VFR
Cloud Levels
  • Clear skies
Temperature
15°C / 59°F
Dewpoint
11°C / 52°F
Humidity
77%
Altimeter
30.09" Hg
Pressure
1018.92 hPa